sensor_id;sensor_type;location;lat;lon;timestamp;pressure;altitude;pressure_sealevel;temperature;humidity
43436;BME280;36399;51.444;-2.018;2023-03-24T00:00:11;98752.00;;;7.02;100.00
43436;BME280;36399;51.444;-2.018;2023-03-24T00:02:39;98757.22;;;7.02;100.00
43436;BME280;36399;51.444;-2.018;2023-03-24T00:05:18;98746.78;;;7.04;100.00
43436;BME280;36399;51.444;-2.018;2023-03-24T00:07:45;98752.88;;;7.00;100.00
43436;BME280;36399;51.444;-2.018;2023-03-24T00:10:15;98753.75;;;6.99;100.00
43436;BME280;36399;51.444;-2.018;2023-03-24T00:12:44;98752.03;;;6.90;100.00
43436;BME280;36399;51.444;-2.018;2023-03-24T00:15:18;98755.50;;;6.93;100.00
43436;BME280;36399;51.444;-2.018;2023-03-24T00:17:46;98761.59;;;6.88;100.00
43436;BME280;36399;51.444;-2.018;2023-03-24T00:20:15;98764.19;;;6.99;100.00
43436;BME280;36399;51.444;-2.018;2023-03-24T00:22:47;98755.50;;;6.90;100.00
43436;BME280;36399;51.444;-2.018;2023-03-24T00:25:18;98758.09;;;6.93;100.00
43436;BME280;36399;51.444;-2.018;2023-03-24T00:27:44;98751.16;;;6.97;100.00
43436;BME280;36399;51.444;-2.018;2023-03-24T00:30:14;98754.63;;;6.88;100.00
43436;BME280;36399;51.444;-2.018;2023-03-24T00:32:41;98754.63;;;6.88;100.00
43436;BME280;36399;51.444;-2.018;2023-03-24T00:35:11;98758.09;;;6.83;100.00
43436;BME280;36399;51.444;-2.018;2023-03-24T00:37:39;98772.03;;;6.80;100.00
43436;BME280;36399;51.444;-2.018;2023-03-24T00:40:10;98769.38;;;6.74;100.00
43436;BME280;36399;51.444;-2.018;2023-03-24T00:42:39;98775.47;;;6.75;100.00
43436;BME280;36399;51.444;-2.018;2023-03-24T00:45:06;98771.97;;;6.71;100.00
43436;BME280;36399;51.444;-2.018;2023-03-24T00:47:34;98765.91;;;6.68;100.00
43436;BME280;36399;51.444;-2.018;2023-03-24T00:50:08;98769.38;;;6.67;100.00
43436;BME280;36399;51.444;-2.018;2023-03-24T00:52:34;98776.31;;;6.63;100.00
43436;BME280;36399;51.444;-2.018;2023-03-24T00:55:04;98778.94;;;6.66;100.00
43436;BME280;36399;51.444;-2.018;2023-03-24T00:57:31;98765.88;;;6.61;100.00
43436;BME280;36399;51.444;-2.018;2023-03-24T01:00:03;98785.00;;;6.50;100.00
43436;BME280;36399;51.444;-2.018;2023-03-24T01:02:48;98789.34;;;6.48;100.00
43436;BME280;36399;51.444;-2.018;2023-03-24T01:05:23;98785.84;;;6.46;100.00
43436;BME280;36399;51.444;-2.018;2023-03-24T01:07:50;98803.22;;;6.44;100.00
43436;BME280;36399;51.444;-2.018;2023-03-24T01:10:22;98798.00;;;6.41;100.00
43436;BME280;36399;51.444;-2.018;2023-03-24T01:12:54;98802.34;;;6.42;100.00
43436;BME280;36399;51.444;-2.018;2023-03-24T01:15:22;98804.97;;;6.42;100.00
43436;BME280;36399;51.444;-2.018;2023-03-24T01:17:50;98804.06;;;6.33;100.00
43436;BME280;36399;51.444;-2.018;2023-03-24T01:20:18;98820.56;;;6.28;100.00
43436;BME280;36399;51.444;-2.018;2023-03-24T01:22:46;98819.69;;;6.30;100.00
43436;BME280;36399;51.444;-2.018;2023-03-24T01:25:18;98825.78;;;6.29;100.00
43436;BME280;36399;51.444;-2.018;2023-03-24T01:27:47;98824.00;;;6.24;100.00
43436;BME280;36399;51.444;-2.018;2023-03-24T01:30:16;98833.53;;;6.23;100.00
43436;BME280;36399;51.444;-2.018;2023-03-24T01:32:42;98835.25;;;6.20;100.00
43436;BME280;36399;51.444;-2.018;2023-03-24T01:35:09;98841.34;;;6.20;100.00
43436;BME280;36399;51.444;-2.018;2023-03-24T01:37:36;98843.06;;;6.12;100.00
43436;BME280;36399;51.444;-2.018;2023-03-24T01:40:04;98843.03;;;6.06;100.00
43436;BME280;36399;51.444;-2.018;2023-03-24T01:42:35;98841.34;;;6.17;100.00
43436;BME280;36399;51.444;-2.018;2023-03-24T01:48:01;98839.63;;;6.21;100.00
43436;BME280;36399;51.444;-2.018;2023-03-24T01:50:27;98854.34;;;6.13;100.00
43436;BME280;36399;51.444;-2.018;2023-03-24T01:52:54;98850.00;;;6.16;100.00
43436;BME280;36399;51.444;-2.018;2023-03-24T01:55:20;98844.78;;;6.15;100.00
43436;BME280;36399;51.444;-2.018;2023-03-24T01:57:50;98836.09;;;6.11;100.00
43436;BME280;36399;51.444;-2.018;2023-03-24T02:00:19;98851.72;;;6.08;100.00
43436;BME280;36399;51.444;-2.018;2023-03-24T02:02:53;98863.00;;;6.07;100.00
43436;BME280;36399;51.444;-2.018;2023-03-24T02:05:33;98867.31;;;6.02;100.00
43436;BME280;36399;51.444;-2.018;2023-03-24T02:10:46;98870.78;;;5.98;100.00
43436;BME280;36399;51.444;-2.018;2023-03-24T02:13:12;98867.28;;;5.94;100.00
43436;BME280;36399;51.444;-2.018;2023-03-24T02:15:49;98869.00;;;5.94;100.00
43436;BME280;36399;51.444;-2.018;2023-03-24T02:18:23;98867.22;;;5.88;100.00
43436;BME280;36399;51.444;-2.018;2023-03-24T02:37:33;98864.53;;;5.75;100.00
43436;BME280;36399;51.444;-2.018;2023-03-24T02:45:55;98867.16;;;5.81;100.00
43436;BME280;36399;51.444;-2.018;2023-03-24T02:51:34;98860.09;;;5.66;100.00
43436;BME280;36399;51.444;-2.018;2023-03-24T02:54:15;98854.88;;;5.61;100.00
43436;BME280;36399;51.444;-2.018;2023-03-24T02:56:51;98860.13;;;5.67;100.00
43436;BME280;36399;51.444;-2.018;2023-03-24T02:59:25;98865.28;;;5.60;100.00
43436;BME280;36399;51.444;-2.018;2023-03-24T03:02:08;98856.56;;;5.53;100.00
43436;BME280;36399;51.444;-2.018;2023-03-24T03:04:41;98856.50;;;5.44;100.00
43436;BME280;36399;51.444;-2.018;2023-03-24T03:07:11;98869.59;;;5.56;100.00
43436;BME280;36399;51.444;-2.018;2023-03-24T03:10:29;98865.25;;;5.55;100.00
43436;BME280;36399;51.444;-2.018;2023-03-24T03:12:35;98861.75;;;5.53;100.00
43436;BME280;36399;51.444;-2.018;2023-03-24T03:15:08;98859.13;;;5.50;100.00
43436;BME280;36399;51.444;-2.018;2023-03-24T03:17:40;98860.84;;;5.45;100.00
43436;BME280;36399;51.444;-2.018;2023-03-24T03:20:17;98859.00;;;5.33;100.00
43436;BME280;36399;51.444;-2.018;2023-03-24T03:23:07;98859.84;;;5.28;100.00
43436;BME280;36399;51.444;-2.018;2023-03-24T03:25:40;98855.53;;;5.33;100.00
43436;BME280;36399;51.444;-2.018;2023-03-24T03:28:15;98854.66;;;5.31;100.00
43436;BME280;36399;51.444;-2.018;2023-03-24T03:30:56;98854.75;;;5.42;100.00
43436;BME280;36399;51.444;-2.018;2023-03-24T03:33:30;98866.06;;;5.50;100.00
43436;BME280;36399;51.444;-2.018;2023-03-24T03:36:28;98868.63;;;5.42;100.00
43436;BME280;36399;51.444;-2.018;2023-03-24T03:38:59;98868.56;;;5.36;100.00
43436;BME280;36399;51.444;-2.018;2023-03-24T03:41:29;98872.94;;;5.38;100.00
43436;BME280;36399;51.444;-2.018;2023-03-24T03:43:55;98877.22;;;5.30;100.00
43436;BME280;36399;51.444;-2.018;2023-03-24T03:46:21;98871.97;;;5.26;100.00
43436;BME280;36399;51.444;-2.018;2023-03-24T03:48:48;98870.19;;;5.22;100.00
43436;BME280;36399;51.444;-2.018;2023-03-24T03:51:14;98876.22;;;5.19;100.00
43436;BME280;36399;51.444;-2.018;2023-03-24T03:53:53;98880.53;;;5.16;100.00
43436;BME280;36399;51.444;-2.018;2023-03-24T03:56:23;98874.41;;;5.09;100.00
43436;BME280;36399;51.444;-2.018;2023-03-24T03:58:49;98874.38;;;5.07;100.00
43436;BME280;36399;51.444;-2.018;2023-03-24T04:01:18;98870.91;;;5.05;100.00
43436;BME280;36399;51.444;-2.018;2023-03-24T04:06:42;98870.00;;;5.03;100.00
43436;BME280;36399;51.444;-2.018;2023-03-24T04:10:08;98865.75;;;5.12;100.00
43436;BME280;36399;51.444;-2.018;2023-03-24T04:15:33;98871.78;;;5.07;100.00
43436;BME280;36399;51.444;-2.018;2023-03-24T04:18:46;98877.94;;;5.17;100.00
43436;BME280;36399;51.444;-2.018;2023-03-24T04:20:49;98873.72;;;5.27;100.00
43436;BME280;36399;51.444;-2.018;2023-03-24T04:23:56;98873.59;;;5.18;100.00
43436;BME280;36399;51.444;-2.018;2023-03-24T04:29:39;98870.03;;;5.06;100.00
43436;BME280;36399;51.444;-2.018;2023-03-24T04:32:38;98873.53;;;5.08;100.00
43436;BME280;36399;51.444;-2.018;2023-03-24T04:35:34;98869.97;;;5.00;100.00
43436;BME280;36399;51.444;-2.018;2023-03-24T04:38:15;98870.00;;;5.03;100.00
43436;BME280;36399;51.444;-2.018;2023-03-24T04:40:44;98867.44;;;5.08;100.00
43436;BME280;36399;51.444;-2.018;2023-03-24T04:43:17;98868.28;;;5.05;100.00
43436;BME280;36399;51.444;-2.018;2023-03-24T04:45:44;98871.81;;;5.11;100.00
43436;BME280;36399;51.444;-2.018;2023-03-24T04:48:17;98872.75;;;5.19;100.00
43436;BME280;36399;51.444;-2.018;2023-03-24T04:50:52;98871.06;;;5.22;100.00
43436;BME280;36399;51.444;-2.018;2023-03-24T04:53:19;98872.00;;;5.29;100.00
43436;BME280;36399;51.444;-2.018;2023-03-24T04:58:15;98869.34;;;5.24;100.00
43436;BME280;36399;51.444;-2.018;2023-03-24T05:00:42;98856.34;;;5.26;100.00
43436;BME280;36399;51.444;-2.018;2023-03-24T05:03:10;98868.50;;;5.27;100.00
43436;BME280;36399;51.444;-2.018;2023-03-24T05:05:39;98868.47;;;5.22;100.00
43436;BME280;36399;51.444;-2.018;2023-03-24T05:08:08;98864.00;;;5.12;100.00
43436;BME280;36399;51.444;-2.018;2023-03-24T05:10:35;98870.91;;;5.05;100.00
43436;BME280;36399;51.444;-2.018;2023-03-24T05:13:03;98871.81;;;5.11;100.00
43436;BME280;36399;51.444;-2.018;2023-03-24T05:15:29;98891.69;;;5.05;100.00
43436;BME280;36399;51.444;-2.018;2023-03-24T05:17:55;98884.78;;;5.07;100.00
43436;BME280;36399;51.444;-2.018;2023-03-24T05:20:23;98885.63;;;5.06;100.00
43436;BME280;36399;51.444;-2.018;2023-03-24T05:22:49;98892.63;;;5.12;100.00
43436;BME280;36399;51.444;-2.018;2023-03-24T05:25:15;98891.91;;;5.25;100.00
43436;BME280;36399;51.444;-2.018;2023-03-24T05:27:42;98898.97;;;5.42;100.00
43436;BME280;36399;51.444;-2.018;2023-03-24T05:30:08;98908.56;;;5.47;100.00
43436;BME280;36399;51.444;-2.018;2023-03-24T05:32:34;98918.94;;;5.41;100.00
43436;BME280;36399;51.444;-2.018;2023-03-24T05:35:01;98920.69;;;5.45;100.00
43436;BME280;36399;51.444;-2.018;2023-03-24T05:37:27;98927.63;;;5.43;100.00
43436;BME280;36399;51.444;-2.018;2023-03-24T05:39:53;98934.72;;;5.62;100.00
43436;BME280;36399;51.444;-2.018;2023-03-24T05:42:20;98931.19;;;5.57;100.00
43436;BME280;36399;51.444;-2.018;2023-03-24T05:44:45;98942.56;;;5.70;100.00
43436;BME280;36399;51.444;-2.018;2023-03-24T05:47:12;98943.34;;;5.58;100.00
43436;BME280;36399;51.444;-2.018;2023-03-24T05:49:41;98941.66;;;5.63;100.00
43436;BME280;36399;51.444;-2.018;2023-03-24T05:52:08;98954.69;;;5.65;100.00
43436;BME280;36399;51.444;-2.018;2023-03-24T05:54:35;98948.72;;;5.74;100.00
43436;BME280;36399;51.444;-2.018;2023-03-24T05:57:01;98954.72;;;5.68;100.00
43436;BME280;36399;51.444;-2.018;2023-03-24T05:59:28;98952.91;;;5.58;100.00
43436;BME280;36399;51.444;-2.018;2023-03-24T06:01:54;98958.06;;;5.53;100.00
43436;BME280;36399;51.444;-2.018;2023-03-24T06:04:23;98958.03;;;5.50;100.00
43436;BME280;36399;51.444;-2.018;2023-03-24T06:06:49;98955.38;;;5.44;100.00
43436;BME280;36399;51.444;-2.018;2023-03-24T06:09:15;98967.66;;;5.60;100.00
43436;BME280;36399;51.444;-2.018;2023-03-24T06:11:42;98963.28;;;5.53;100.00
43436;BME280;36399;51.444;-2.018;2023-03-24T06:14:09;98971.09;;;5.56;100.00
43436;BME280;36399;51.444;-2.018;2023-03-24T06:16:35;98971.13;;;5.58;100.00
43436;BME280;36399;51.444;-2.018;2023-03-24T06:19:05;98978.13;;;5.66;100.00
43436;BME280;36399;51.444;-2.018;2023-03-24T06:21:32;98970.34;;;5.69;100.00
43436;BME280;36399;51.444;-2.018;2023-03-24T06:23:59;98977.53;;;5.93;100.00
43436;BME280;36399;51.444;-2.018;2023-03-24T06:26:25;98973.19;;;5.94;100.00
43436;BME280;36399;51.444;-2.018;2023-03-24T06:28:51;98974.94;;;5.95;100.00
43436;BME280;36399;51.444;-2.018;2023-03-24T06:31:18;98983.69;;;6.03;100.00
43436;BME280;36399;51.444;-2.018;2023-03-24T06:33:50;98969.88;;;6.19;100.00
43436;BME280;36399;51.444;-2.018;2023-03-24T06:36:16;98975.09;;;6.19;100.00
43436;BME280;36399;51.444;-2.018;2023-03-24T06:38:43;98979.53;;;6.31;100.00
43436;BME280;36399;51.444;-2.018;2023-03-24T06:41:11;98980.47;;;6.42;100.00
43436;BME280;36399;51.444;-2.018;2023-03-24T06:43:40;98977.88;;;6.48;100.00
43436;BME280;36399;51.444;-2.018;2023-03-24T06:46:06;98975.28;;;6.50;100.00
43436;BME280;36399;51.444;-2.018;2023-03-24T06:48:32;98975.28;;;6.48;100.00
43436;BME280;36399;51.444;-2.018;2023-03-24T06:50:58;98967.44;;;6.45;100.00
43436;BME280;36399;51.444;-2.018;2023-03-24T06:53:24;98971.78;;;6.45;100.00
43436;BME280;36399;51.444;-2.018;2023-03-24T06:55:50;98976.16;;;6.47;100.00
43436;BME280;36399;51.444;-2.018;2023-03-24T06:58:16;98975.31;;;6.53;100.00
43436;BME280;36399;51.444;-2.018;2023-03-24T07:00:43;98970.13;;;6.62;100.00
43436;BME280;36399;51.444;-2.018;2023-03-24T07:03:11;98968.41;;;6.65;100.00
43436;BME280;36399;51.444;-2.018;2023-03-24T07:05:42;98962.34;;;6.71;100.00
43436;BME280;36399;51.444;-2.018;2023-03-24T07:08:10;98971.97;;;6.77;100.00
43436;BME280;36399;51.444;-2.018;2023-03-24T07:10:38;98971.06;;;6.76;100.00
43436;BME280;36399;51.444;-2.018;2023-03-24T07:13:05;98976.31;;;6.79;100.00
43436;BME280;36399;51.444;-2.018;2023-03-24T07:15:32;98966.78;;;6.90;100.00
43436;BME280;36399;51.444;-2.018;2023-03-24T07:17:58;98972.91;;;6.97;100.00
43436;BME280;36399;51.444;-2.018;2023-03-24T07:20:24;98975.53;;;7.02;100.00
43436;BME280;36399;51.444;-2.018;2023-03-24T07:22:54;98964.22;;;7.06;100.00
43436;BME280;36399;51.444;-2.018;2023-03-24T07:25:21;98954.66;;;7.05;100.00
43436;BME280;36399;51.444;-2.018;2023-03-24T07:27:47;98960.75;;;7.04;100.00
43436;BME280;36399;51.444;-2.018;2023-03-24T07:30:13;98959.88;;;7.05;100.00
43436;BME280;36399;51.444;-2.018;2023-03-24T07:32:39;98956.41;;;7.07;100.00
43436;BME280;36399;51.444;-2.018;2023-03-24T07:35:08;98957.28;;;7.15;100.00
43436;BME280;36399;51.444;-2.018;2023-03-24T07:37:38;98945.13;;;7.19;100.00
43436;BME280;36399;51.444;-2.018;2023-03-24T07:40:05;98949.50;;;7.32;100.00
43436;BME280;36399;51.444;-2.018;2023-03-24T07:42:35;98949.53;;;7.44;100.00
43436;BME280;36399;51.444;-2.018;2023-03-24T07:45:01;98949.53;;;7.50;100.00
43436;BME280;36399;51.444;-2.018;2023-03-24T07:47:27;98946.91;;;7.64;100.00
43436;BME280;36399;51.444;-2.018;2023-03-24T07:49:53;98954.75;;;7.69;100.00
43436;BME280;36399;51.444;-2.018;2023-03-24T07:52:19;98948.69;;;7.86;100.00
43436;BME280;36399;51.444;-2.018;2023-03-24T07:54:45;98940.81;;;8.09;100.00
43436;BME280;36399;51.444;-2.018;2023-03-24T07:57:11;98937.31;;;8.16;100.00
43436;BME280;36399;51.444;-2.018;2023-03-24T07:59:37;98929.44;;;8.26;100.00
43436;BME280;36399;51.444;-2.018;2023-03-24T08:02:03;98946.03;;;8.37;100.00
43436;BME280;36399;51.444;-2.018;2023-03-24T08:04:29;98938.16;;;8.47;100.00
43436;BME280;36399;51.444;-2.018;2023-03-24T08:06:56;98938.13;;;8.49;100.00
43436;BME280;36399;51.444;-2.018;2023-03-24T08:09:23;98942.47;;;8.59;100.00
43436;BME280;36399;51.444;-2.018;2023-03-24T08:11:50;98944.16;;;8.66;100.00
43436;BME280;36399;51.444;-2.018;2023-03-24T08:14:15;98943.22;;;8.84;100.00
43436;BME280;36399;51.444;-2.018;2023-03-24T08:16:41;98942.28;;;8.99;100.00
43436;BME280;36399;51.444;-2.018;2023-03-24T08:19:10;98937.03;;;9.05;100.00
43436;BME280;36399;51.444;-2.018;2023-03-24T08:21:39;98940.47;;;9.13;100.00
43436;BME280;36399;51.444;-2.018;2023-03-24T08:24:05;98931.66;;;9.23;100.00
43436;BME280;36399;51.444;-2.018;2023-03-24T08:26:31;98918.50;;;9.40;100.00
43436;BME280;36399;51.444;-2.018;2023-03-24T08:29:00;98923.75;;;9.37;100.00
43436;BME280;36399;51.444;-2.018;2023-03-24T08:31:33;98921.97;;;9.40;100.00
43436;BME280;36399;51.444;-2.018;2023-03-24T08:33:59;98915.81;;;9.46;100.00
43436;BME280;36399;51.444;-2.018;2023-03-24T08:36:25;98897.41;;;9.55;100.00
43436;BME280;36399;51.444;-2.018;2023-03-24T08:38:54;98893.09;;;9.49;100.00
43436;BME280;36399;51.444;-2.018;2023-03-24T08:41:22;98907.91;;;9.52;100.00
43436;BME280;36399;51.444;-2.018;2023-03-24T08:43:55;98904.50;;;9.44;100.00
43436;BME280;36399;51.444;-2.018;2023-03-24T08:46:21;98903.63;;;9.42;100.00
43436;BME280;36399;51.444;-2.018;2023-03-24T08:48:47;98907.91;;;9.52;100.00
43436;BME280;36399;51.444;-2.018;2023-03-24T08:51:15;98882.50;;;9.62;100.00
43436;BME280;36399;51.444;-2.018;2023-03-24T08:53:41;98902.63;;;9.60;100.00
43436;BME280;36399;51.444;-2.018;2023-03-24T08:56:08;98880.69;;;9.70;100.00
43436;BME280;36399;51.444;-2.018;2023-03-24T08:58:34;98908.56;;;9.77;100.00
43436;BME280;36399;51.444;-2.018;2023-03-24T09:01:01;98902.41;;;9.81;100.00
43436;BME280;36399;51.444;-2.018;2023-03-24T09:03:27;98910.22;;;9.87;100.00
43436;BME280;36399;51.444;-2.018;2023-03-24T09:05:54;98901.44;;;9.96;100.00
43436;BME280;36399;51.444;-2.018;2023-03-24T09:08:24;98910.97;;;10.03;100.00
43436;BME280;36399;51.444;-2.018;2023-03-24T09:10:51;98905.72;;;10.04;100.00
43436;BME280;36399;51.444;-2.018;2023-03-24T09:13:18;98899.47;;;10.16;100.00
43436;BME280;36399;51.444;-2.018;2023-03-24T09:15:52;98897.75;;;10.12;100.00
43436;BME280;36399;51.444;-2.018;2023-03-24T09:18:20;98910.81;;;10.18;100.00
43436;BME280;36399;51.444;-2.018;2023-03-24T09:20:46;98903.72;;;10.29;100.00
43436;BME280;36399;51.444;-2.018;2023-03-24T09:23:12;98905.44;;;10.33;100.00
43436;BME280;36399;51.444;-2.018;2023-03-24T09:25:39;98918.44;;;10.44;100.00
43436;BME280;36399;51.444;-2.018;2023-03-24T09:28:05;98898.38;;;10.37;100.00
43436;BME280;36399;51.444;-2.018;2023-03-24T09:30:33;98892.03;;;10.58;100.00
43436;BME280;36399;51.444;-2.018;2023-03-24T09:32:59;98906.56;;;10.83;100.00
43436;BME280;36399;51.444;-2.018;2023-03-24T09:35:26;98903.28;;;10.67;100.00
43436;BME280;36399;51.444;-2.018;2023-03-24T09:37:53;98897.88;;;10.80;100.00
43436;BME280;36399;51.444;-2.018;2023-03-24T09:40:24;98899.53;;;10.87;100.00
43436;BME280;36399;51.444;-2.018;2023-03-24T09:42:59;98898.75;;;10.79;100.00
43436;BME280;36399;51.444;-2.018;2023-03-24T09:45:29;98896.75;;;10.99;100.00
43436;BME280;36399;51.444;-2.018;2023-03-24T09:48:02;98902.78;;;11.07;100.00
43436;BME280;36399;51.444;-2.018;2023-03-24T09:50:50;98917.94;;;10.84;100.00
43436;BME280;36399;51.444;-2.018;2023-03-24T09:56:13;98913.00;;;10.59;100.00
43436;BME280;36399;51.444;-2.018;2023-03-24T09:58:42;98922.78;;;10.47;100.00
43436;BME280;36399;51.444;-2.018;2023-03-24T10:01:13;98932.34;;;10.52;100.00
43436;BME280;36399;51.444;-2.018;2023-03-24T10:03:43;98915.50;;;10.70;100.00
43436;BME280;36399;51.444;-2.018;2023-03-24T10:06:16;98906.41;;;10.97;100.00
43436;BME280;36399;51.444;-2.018;2023-03-24T10:09:27;98887.19;;;10.95;100.00
43436;BME280;36399;51.444;-2.018;2023-03-24T10:17:43;98874.97;;;13.30;100.00
43436;BME280;36399;51.444;-2.018;2023-03-24T10:25:46;98874.72;;;12.17;100.00
43436;BME280;36399;51.444;-2.018;2023-03-24T10:28:20;98878.56;;;11.99;100.00
43436;BME280;36399;51.444;-2.018;2023-03-24T10:30:49;98876.16;;;11.85;100.00
43436;BME280;36399;51.444;-2.018;2023-03-24T10:33:16;98882.25;;;11.87;100.00
43436;BME280;36399;51.444;-2.018;2023-03-24T10:38:18;98877.81;;;11.89;100.00
43436;BME280;36399;51.444;-2.018;2023-03-24T10:40:45;98871.97;;;11.72;100.00
43436;BME280;36399;51.444;-2.018;2023-03-24T10:43:14;98872.84;;;11.73;100.00
43436;BME280;36399;51.444;-2.018;2023-03-24T10:45:43;98881.84;;;12.10;100.00
43436;BME280;36399;51.444;-2.018;2023-03-24T10:48:12;98882.06;;;11.99;100.00
43436;BME280;36399;51.444;-2.018;2023-03-24T10:50:42;98889.44;;;11.78;100.00
43436;BME280;36399;51.444;-2.018;2023-03-24T10:53:21;98883.22;;;11.26;100.00
43436;BME280;36399;51.444;-2.018;2023-03-24T10:55:47;98909.88;;;10.27;100.00
43436;BME280;36399;51.444;-2.018;2023-03-24T10:58:24;98922.50;;;9.82;100.00
43436;BME280;36399;51.444;-2.018;2023-03-24T11:00:52;98900.88;;;9.57;100.00
43436;BME280;36399;51.444;-2.018;2023-03-24T11:03:31;98916.78;;;9.30;100.00
43436;BME280;36399;51.444;-2.018;2023-03-24T11:06:03;98922.97;;;9.21;100.00
43436;BME280;36399;51.444;-2.018;2023-03-24T11:08:35;98915.22;;;9.04;100.00
43436;BME280;36399;51.444;-2.018;2023-03-24T11:11:28;98903.91;;;8.98;100.00
43436;BME280;36399;51.444;-2.018;2023-03-24T11:13:57;98915.25;;;8.98;100.00
43436;BME280;36399;51.444;-2.018;2023-03-24T11:16:50;98910.78;;;9.14;100.00
43436;BME280;36399;51.444;-2.018;2023-03-24T11:19:22;98915.22;;;9.03;100.00
43436;BME280;36399;51.444;-2.018;2023-03-24T11:21:50;98924.69;;;9.25;100.00
43436;BME280;36399;51.444;-2.018;2023-03-24T11:24:18;98900.88;;;9.59;100.00
43436;BME280;36399;51.444;-2.018;2023-03-24T11:26:51;98913.38;;;10.26;100.00
43436;BME280;36399;51.444;-2.018;2023-03-24T11:29:21;98909.69;;;11.13;100.00
43436;BME280;36399;51.444;-2.018;2023-03-24T11:31:54;98879.47;;;11.95;100.00
43436;BME280;36399;51.444;-2.018;2023-03-24T11:34:23;98890.78;;;11.48;100.00
43436;BME280;36399;51.444;-2.018;2023-03-24T11:36:55;98887.09;;;12.56;100.00
43436;BME280;36399;51.444;-2.018;2023-03-24T11:39:29;98887.59;;;12.74;100.00
43436;BME280;36399;51.444;-2.018;2023-03-24T11:42:12;98867.56;;;12.67;100.00
43436;BME280;36399;51.444;-2.018;2023-03-24T11:44:48;98878.38;;;12.54;100.00
43436;BME280;36399;51.444;-2.018;2023-03-24T11:52:38;98868.84;;;13.29;100.00
43436;BME280;36399;51.444;-2.018;2023-03-24T11:55:15;98862.88;;;12.81;100.00
43436;BME280;36399;51.444;-2.018;2023-03-24T11:57:54;98859.56;;;13.11;100.00
43436;BME280;36399;51.444;-2.018;2023-03-24T12:00:26;98834.47;;;13.69;100.00
43436;BME280;36399;51.444;-2.018;2023-03-24T12:05:38;98855.09;;;14.20;100.00
43436;BME280;36399;51.444;-2.018;2023-03-24T12:08:35;98851.91;;;14.09;100.00
43436;BME280;36399;51.444;-2.018;2023-03-24T12:11:20;98836.75;;;14.77;100.00
43436;BME280;36399;51.444;-2.018;2023-03-24T12:13:48;98823.78;;;14.70;100.00
43436;BME280;36399;51.444;-2.018;2023-03-24T12:16:51;98828.81;;;14.17;100.00
43436;BME280;36399;51.444;-2.018;2023-03-24T12:19:55;98833.72;;;13.64;100.00
43436;BME280;36399;51.444;-2.018;2023-03-24T12:30:42;98795.13;;;14.25;100.00
43436;BME280;36399;51.444;-2.018;2023-03-24T12:38:33;98789.84;;;14.58;100.00
43436;BME280;36399;51.444;-2.018;2023-03-24T12:44:06;98777.84;;;15.30;100.00
43436;BME280;36399;51.444;-2.018;2023-03-24T12:52:21;98792.59;;;12.83;100.00
43436;BME280;36399;51.444;-2.018;2023-03-24T12:55:04;98789.38;;;11.85;100.00
43436;BME280;36399;51.444;-2.018;2023-03-24T12:57:40;98821.97;;;11.23;100.00
43436;BME280;36399;51.444;-2.018;2023-03-24T13:00:12;98840.97;;;10.82;100.00
43436;BME280;36399;51.444;-2.018;2023-03-24T13:02:45;98855.69;;;10.26;100.00
43436;BME280;36399;51.444;-2.018;2023-03-24T13:05:16;98845.47;;;9.98;100.00
43436;BME280;36399;51.444;-2.018;2023-03-24T13:07:44;98843.72;;;10.00;100.00
43436;BME280;36399;51.444;-2.018;2023-03-24T13:10:18;98845.53;;;9.92;100.00
43436;BME280;36399;51.444;-2.018;2023-03-24T13:13:09;98841.09;;;9.99;100.00
43436;BME280;36399;51.444;-2.018;2023-03-24T13:15:51;98850.66;;;10.04;100.00
43436;BME280;36399;51.444;-2.018;2023-03-24T13:18:30;98849.59;;;10.19;100.00
43436;BME280;36399;51.444;-2.018;2023-03-24T13:21:16;98838.94;;;10.36;100.00
43436;BME280;36399;51.444;-2.018;2023-03-24T13:23:51;98823.84;;;10.56;100.00
43436;BME280;36399;51.444;-2.018;2023-03-24T13:31:38;98807.91;;;10.68;100.00
43436;BME280;36399;51.444;-2.018;2023-03-24T13:34:19;98805.88;;;10.89;100.00
43436;BME280;36399;51.444;-2.018;2023-03-24T13:36:57;98810.97;;;11.01;100.00
43436;BME280;36399;51.444;-2.018;2023-03-24T13:39:26;98813.66;;;10.96;100.00
43436;BME280;36399;51.444;-2.018;2023-03-24T13:41:55;98820.78;;;10.85;100.00
43436;BME280;36399;51.444;-2.018;2023-03-24T13:44:24;98800.78;;;10.78;100.00
43436;BME280;36399;51.444;-2.018;2023-03-24T13:47:05;98816.16;;;11.04;100.00
43436;BME280;36399;51.444;-2.018;2023-03-24T13:49:33;98807.59;;;11.97;100.00
43436;BME280;36399;51.444;-2.018;2023-03-24T13:52:20;98809.44;;;12.36;100.00
43436;BME280;36399;51.444;-2.018;2023-03-24T13:54:50;98789.38;;;12.30;100.00
43436;BME280;36399;51.444;-2.018;2023-03-24T13:57:19;98798.19;;;13.43;100.00
43436;BME280;36399;51.444;-2.018;2023-03-24T14:02:51;98782.97;;;13.56;100.00
43436;BME280;36399;51.444;-2.018;2023-03-24T14:10:45;98766.63;;;13.06;100.00
43436;BME280;36399;51.444;-2.018;2023-03-24T14:21:02;98765.53;;;11.94;100.00
43436;BME280;36399;51.444;-2.018;2023-03-24T14:24:01;98756.34;;;12.17;100.00
43436;BME280;36399;51.444;-2.018;2023-03-24T14:26:39;98752.78;;;11.73;100.00
43436;BME280;36399;51.444;-2.018;2023-03-24T14:29:38;98779.22;;;11.65;100.00
43436;BME280;36399;51.444;-2.018;2023-03-24T14:32:05;98771.47;;;11.58;100.00
43436;BME280;36399;51.444;-2.018;2023-03-24T14:34:32;98777.31;;;11.24;100.00
43436;BME280;36399;51.444;-2.018;2023-03-24T14:37:03;98785.50;;;11.04;100.00
43436;BME280;36399;51.444;-2.018;2023-03-24T14:39:40;98788.34;;;10.89;100.00
43436;BME280;36399;51.444;-2.018;2023-03-24T14:45:00;98792.69;;;10.29;100.00
43436;BME280;36399;51.444;-2.018;2023-03-24T14:47:48;98808.66;;;10.07;100.00
43436;BME280;36399;51.444;-2.018;2023-03-24T14:50:20;98803.22;;;10.26;100.00
43436;BME280;36399;51.444;-2.018;2023-03-24T14:52:51;98789.28;;;10.87;100.00
43436;BME280;36399;51.444;-2.018;2023-03-24T14:55:18;98766.16;;;11.61;100.00
43436;BME280;36399;51.444;-2.018;2023-03-24T14:58:10;98772.25;;;12.11;100.00
43436;BME280;36399;51.444;-2.018;2023-03-24T15:00:41;98754.81;;;12.45;100.00
43436;BME280;36399;51.444;-2.018;2023-03-24T15:05:44;98751.41;;;12.02;100.00